Latest Weather Observations for Bridgetown

IDW60801

Issued at 3:32 pm WST Saturday 29 August 2015 (issued every 30 minutes, with the page automatically refreshed every 10 minutes)

About weather observations | Map of weather stations | Latest weather observations for WA | Other Formats
Station Details ID: 009617 Name: BRIDGETOWN Lat: -33.95 Lon: 116.13 Height: 178.66 m
Data from the previous 72 hours. | See also: Recent months at Bridgetown
Date/Time
WST
Temp
°C
App
Temp
°C
Dew
Point
Rel
Hum
%
Delta-T
°C
Wind Press
QNH
hPa
Press
MSL
hPa
Rain
since 9 am
mm
Dir
 
Spd
km/h
Gust
km/h
Spd
kts
Gust
kts
29/03:30pm 17.2 - - - - NW 7 15 4 8 1009.5 1009.6 6.6
29/03:00pm 17.3 - - - - WNW 13 28 7 15 1009.0 1009.0 6.6
29/02:30pm 16.8 - - - - W 15 30 8 16 1008.6 1008.7 6.6
29/02:00pm 16.7 - - - - NNW 28 54 15 29 1007.6 1007.7 6.6
29/01:53pm 16.5 - - - - NNW 30 54 16 29 1007.4 1007.5 6.6
29/01:30pm 15.4 - - - - N 20 37 11 20 1007.1 1007.2 6.2
29/01:00pm 15.5 - - - - N 19 30 10 16 1007.9 1008.0 5.2
29/12:30pm 16.0 - - - - N 17 28 9 15 1008.8 1008.9 3.8
29/12:00pm 16.0 - - - - N 11 17 6 9 1009.6 1009.7 1.8
29/11:30am 17.9 - - - - N 19 35 10 19 1009.7 1009.8 0.0
29/11:00am 17.8 - - - - NNW 17 32 9 17 1009.9 1010.0 0.0
29/10:30am 16.8 - - - - N 15 24 8 13 1010.4 1010.5 0.0
29/10:00am 16.7 - - - - N 17 28 9 15 1010.9 1011.0 0.0
29/09:30am 16.6 - - - - N 15 22 8 12 1011.1 1011.2 0.0
29/09:00am 15.6 - - - - N 13 20 7 11 1011.3 1011.4 0.0
29/08:30am 14.8 - - - - NNW 11 20 6 11 1011.6 1011.7 0.0
29/08:00am 11.5 - - - - NNW 4 9 2 5 1011.6 1011.7 0.0
29/07:30am 8.3 7.9 8.3 100 0.0 CALM 0 0 0 0 1011.6 1011.7 0.0
29/07:00am 7.2 6.6 7.2 100 0.0 CALM 0 0 0 0 1011.9 1012.0 0.0
29/06:30am 7.2 6.6 7.2 100 0.0 CALM 0 0 0 0 1011.8 1011.9 0.0
29/06:00am 7.1 6.4 7.1 100 0.0 CALM 0 0 0 0 1011.8 1011.9 0.0
29/05:30am 6.8 6.1 6.8 100 0.0 CALM 0 0 0 0 1011.7 1011.8 0.0
29/05:00am 6.8 6.1 6.8 100 0.0 CALM 0 0 0 0 1011.7 1011.8 0.0
29/04:30am 6.6 5.8 6.6 100 0.0 CALM 0 0 0 0 1011.7 1011.8 0.0
29/04:00am 6.5 5.7 6.5 100 0.0 CALM 0 0 0 0 1011.8 1011.9 0.0
29/03:30am 6.4 5.6 6.4 100 0.0 CALM 0 0 0 0 1012.2 1012.3 0.0
29/03:00am 6.3 5.5 6.3 100 0.0 CALM 0 0 0 0 1012.4 1012.5 0.0
29/02:30am 6.3 5.5 6.3 100 0.0 CALM 0 0 0 0 1012.7 1012.8 0.0
29/02:00am 6.5 5.7 6.5 100 0.0 CALM 0 0 0 0 1013.1 1013.2 0.0
29/01:30am 6.0 5.1 6.0 100 0.0 CALM 0 0 0 0 1013.4 1013.5 0.0
29/01:00am 6.0 5.1 6.0 100 0.0 CALM 0 0 0 0 1013.7 1013.9 0.0
29/12:30am 5.6 4.6 5.6 100 0.0 CALM 0 0 0 0 1013.9 1014.1 0.0
29/12:00am 6.0 5.1 6.0 100 0.0 CALM 0 0 0 0 1014.0 1014.2 0.0
 
Date/Time
WST
Temp
°C
App
Temp
°C
Dew
Point
Rel
Hum
%
Delta-T
°C
Wind Press
QNH
hPa
Press
MSL
hPa
Rain
since 9 am
mm
Dir
 
Spd
km/h
Gust
km/h
Spd
kts
Gust
kts
28/11:30pm 5.7 4.7 5.7 100 0.0 CALM 0 0 0 0 1014.5 1014.7 0.0
28/11:00pm 6.1 5.2 6.1 100 0.0 CALM 0 0 0 0 1015.0 1015.1 0.0
28/10:30pm 6.2 5.3 6.2 100 0.0 CALM 0 0 0 0 1015.3 1015.4 0.0
28/10:00pm 6.4 5.6 6.4 100 0.0 CALM 0 0 0 0 1015.4 1015.5 0.0
28/09:30pm 6.8 6.1 6.8 100 0.0 CALM 0 4 0 2 1015.6 1015.7 0.0
28/09:00pm 7.4 6.4 7.4 100 0.0 ENE 2 4 1 2 1015.6 1015.7 0.0
28/08:30pm 7.7 7.1 7.6 99 0.0 CALM 0 0 0 0 1015.4 1015.5 0.0
28/08:00pm 9.1 8.9 9.0 99 0.0 CALM 0 4 0 2 1015.4 1015.5 0.0
28/07:30pm 9.5 9.3 9.2 98 0.1 CALM 0 2 0 1 1015.2 1015.3 0.0
28/07:00pm 11.4 10.9 9.5 88 1.0 NW 2 4 1 2 1015.0 1015.1 0.0
28/06:30pm 11.7 11.0 8.6 81 1.5 NNW 2 6 1 3 1014.9 1015.0 0.0
28/06:00pm 13.6 13.2 8.4 71 2.6 CALM 0 4 0 2 1014.4 1014.6 0.0
28/05:30pm 15.0 13.9 8.3 64 3.4 NNW 4 9 2 5 1014.2 1014.4 0.0
28/05:00pm 16.7 14.6 8.4 58 4.3 NW 9 22 5 12 1014.1 1014.3 0.0
28/04:30pm 16.9 15.1 9.3 61 4.0 NW 9 19 5 10 1013.9 1014.1 0.0
28/04:00pm 18.1 16.4 10.0 59 4.3 NW 9 17 5 9 1013.8 1014.0 0.0
28/03:30pm 17.6 15.5 9.8 60 4.1 NW 11 19 6 10 1013.6 1013.7 0.0
28/03:00pm 18.7 15.5 10.0 57 4.7 NW 17 30 9 16 1013.4 1013.5 0.0
28/02:30pm 19.1 16.7 9.9 55 4.9 NW 13 24 7 13 1013.3 1013.4 0.0
28/02:00pm 18.6 15.9 10.2 58 4.5 NW 15 28 8 15 1013.3 1013.4 0.0
28/01:30pm 19.1 17.0 11.2 60 4.3 NW 13 26 7 14 1013.2 1013.3 0.0
28/01:00pm 18.7 16.9 12.2 66 3.6 NNW 13 22 7 12 1013.5 1013.6 0.0
28/12:30pm 17.4 15.5 11.7 69 3.1 NW 13 22 7 12 1014.1 1014.3 0.0
28/12:00pm 18.4 17.4 13.3 72 2.9 NW 11 20 6 11 1014.3 1014.5 0.0
28/11:30am 17.4 16.5 12.5 73 2.7 NW 9 17 5 9 1014.5 1014.7 0.0
28/11:00am 17.0 15.5 13.1 78 2.2 NW 13 22 7 12 1014.4 1014.6 0.0
28/10:30am 16.4 15.7 14.4 88 1.2 NW 11 19 6 10 1014.6 1014.8 0.0
28/10:00am 16.0 16.8 15.8 99 0.1 NW 6 9 3 5 1014.6 1014.8 0.0
28/09:30am 15.4 17.2 15.4 100 0.0 CALM 0 0 0 0 1014.9 1015.0 0.0
28/09:00am 12.5 12.9 12.5 100 0.0 SSE 2 4 1 2 1014.9 1015.0 0.2
28/08:30am 11.2 11.6 11.2 100 0.0 CALM 0 0 0 0 1014.9 1015.0 0.2
28/08:00am 8.6 8.3 8.6 100 0.0 CALM 0 0 0 0 1014.9 1015.0 0.2
28/07:30am 7.4 6.8 7.4 100 0.0 CALM 0 0 0 0 1014.4 1014.6 0.2
28/07:00am 7.3 6.7 7.3 100 0.0 CALM 0 0 0 0 1014.1 1014.3 0.0
28/06:30am 6.6 5.8 6.6 100 0.0 CALM 0 0 0 0 1013.8 1014.0 0.0
28/06:00am 5.8 4.8 5.8 100 0.0 CALM 0 0 0 0 1013.4 1013.5 0.0
28/05:30am 6.2 5.3 6.2 100 0.0 CALM 0 0 0 0 1013.6 1013.7 0.0
28/05:00am 5.8 4.8 5.8 100 0.0 CALM 0 0 0 0 1013.4 1013.5 0.0
28/04:30am 5.5 4.5 5.5 100 0.0 CALM 0 0 0 0 1013.5 1013.6 0.0
28/04:00am 5.5 4.5 5.5 100 0.0 CALM 0 0 0 0 1013.3 1013.4 0.0
28/03:30am 5.7 4.7 5.7 100 0.0 CALM 0 0 0 0 1013.1 1013.2 0.0
28/03:00am 5.8 4.8 5.8 100 0.0 CALM 0 0 0 0 1013.1 1013.2 0.0
28/02:30am 6.7 5.9 6.7 100 0.0 CALM 0 0 0 0 1013.0 1013.1 0.0
28/02:00am 6.7 5.9 6.6 99 0.0 CALM 0 0 0 0 1013.1 1013.2 0.0
28/01:30am 7.2 6.5 7.1 99 0.0 CALM 0 0 0 0 1013.3 1013.4 0.0
28/01:00am 7.6 7.0 7.5 99 0.0 CALM 0 0 0 0 1013.5 1013.6 0.0
28/12:30am 8.2 7.8 8.1 99 0.0 CALM 0 0 0 0 1013.5 1013.6 0.0
28/12:00am 8.7 8.3 8.4 98 0.1 CALM 0 0 0 0 1013.7 1013.9 0.0
 
Date/Time
WST
Temp
°C
App
Temp
°C
Dew
Point
Rel
Hum
%
Delta-T
°C
Wind Press
QNH
hPa
Press
MSL
hPa
Rain
since 9 am
mm
Dir
 
Spd
km/h
Gust
km/h
Spd
kts
Gust
kts
27/11:30pm 9.2 9.0 8.9 98 0.1 CALM 0 0 0 0 1013.8 1014.0 0.0
27/11:00pm 9.2 9.0 9.1 99 0.0 CALM 0 2 0 1 1014.0 1014.2 0.0
27/10:30pm 9.7 9.6 9.4 98 0.2 CALM 0 0 0 0 1014.4 1014.6 0.0
27/10:00pm 9.5 9.3 9.2 98 0.1 CALM 0 0 0 0 1014.6 1014.8 0.0
27/09:30pm 9.8 9.7 9.5 98 0.2 CALM 0 0 0 0 1015.0 1015.1 0.0
27/09:00pm 10.3 10.4 10.0 98 0.2 CALM 0 0 0 0 1015.0 1015.1 0.0
27/08:30pm 10.8 11.0 10.5 98 0.2 CALM 0 0 0 0 1015.2 1015.3 0.0
27/08:00pm 11.2 11.4 10.7 97 0.3 CALM 0 0 0 0 1015.2 1015.3 0.0
27/07:30pm 11.6 11.8 10.7 94 0.5 CALM 0 0 0 0 1015.2 1015.3 0.0
27/07:00pm 11.9 12.0 10.3 90 0.8 CALM 0 0 0 0 1015.1 1015.2 0.0
27/06:30pm 13.3 13.2 9.4 77 2.0 CALM 0 0 0 0 1014.9 1015.0 0.0
27/06:00pm 15.2 15.1 9.3 68 3.1 CALM 0 0 0 0 1014.9 1015.0 0.0
27/05:30pm 18.5 17.0 6.7 46 5.9 SE 4 7 2 4 1014.4 1014.6 0.0
27/05:00pm 19.6 17.8 7.0 44 6.4 E 6 9 3 5 1014.8 1014.9 0.0
27/04:30pm 20.3 19.4 7.7 44 6.5 E 2 6 1 3 1015.1 1015.2 0.0
27/04:00pm 20.1 17.7 7.1 43 6.7 E 9 13 5 7 1015.2 1015.3 0.0
27/03:30pm 20.3 18.1 5.5 38 7.4 NE 6 11 3 6 1015.5 1015.6 0.0
27/03:00pm 21.4 19.9 9.3 46 6.5 ENE 7 11 4 6 1015.6 1015.7 0.0
27/02:30pm 20.9 18.7 6.1 38 7.5 NE 7 13 4 7 1015.8 1015.9 0.0
27/02:00pm 20.7 19.1 8.7 46 6.4 NNE 7 17 4 9 1015.9 1016.0 0.0
27/01:30pm 20.3 17.7 6.3 40 7.1 NE 9 13 5 7 1016.2 1016.3 0.0
27/01:00pm 19.6 17.7 7.7 46 6.1 E 7 13 4 7 1016.6 1016.7 0.0
27/12:30pm 19.5 18.2 10.0 54 5.1 NE 7 17 4 9 1017.2 1017.3 0.0
27/12:00pm 18.6 16.4 8.0 50 5.5 ENE 9 17 5 9 1017.7 1017.8 0.0
27/11:30am 18.0 15.8 7.7 51 5.3 ENE 9 15 5 8 1018.3 1018.4 0.0
27/11:00am 17.4 15.6 9.3 59 4.3 NE 9 15 5 8 1018.7 1018.9 0.0
27/10:30am 16.4 14.6 9.3 63 3.7 ENE 9 17 5 9 1019.1 1019.3 0.0
27/10:00am 15.7 14.8 10.7 72 2.7 E 6 9 3 5 1019.5 1019.7 0.0
27/09:30am 13.1 13.1 11.2 88 1.0 SSW 2 6 1 3 1019.8 1020.0 0.0
27/09:00am 10.9 10.0 10.6 98 0.2 S 6 7 3 4 1020.0 1020.2 0.0
27/08:30am 7.8 7.3 7.8 100 0.0 CALM 0 0 0 0 1020.2 1020.4 0.0
27/08:00am 4.7 3.5 4.7 100 0.0 CALM 0 2 0 1 1020.2 1020.4 0.0
27/07:30am 3.0 1.5 3.0 100 0.0 CALM 0 0 0 0 1020.1 1020.3 0.0
27/07:00am 1.3 -0.5 1.3 100 0.0 CALM 0 0 0 0 1020.0 1020.2 0.0
27/06:30am 1.0 -0.8 1.0 100 0.0 CALM 0 0 0 0 1019.6 1019.8 0.0
27/06:00am 1.3 -0.5 1.3 100 0.0 CALM 0 0 0 0 1019.4 1019.6 0.0
27/05:30am 1.6 -0.1 1.6 100 0.0 CALM 0 0 0 0 1019.3 1019.5 0.0
27/05:00am 1.9 0.2 1.9 100 0.0 CALM 0 0 0 0 1019.4 1019.6 0.0
27/04:30am 2.0 0.3 2.0 100 0.0 CALM 0 0 0 0 1019.3 1019.5 0.0
27/04:00am 2.2 0.6 2.2 100 0.0 CALM 0 0 0 0 1019.3 1019.5 0.0
27/03:30am 2.5 0.9 2.5 100 0.0 CALM 0 0 0 0 1019.2 1019.4 0.0
27/03:00am 2.6 1.0 2.6 100 0.0 CALM 0 0 0 0 1019.4 1019.6 0.0
27/02:30am 3.1 1.6 3.1 100 0.0 CALM 0 0 0 0 1019.7 1019.9 0.0
27/02:00am 3.4 2.0 3.4 100 0.0 CALM 0 0 0 0 1020.0 1020.2 0.0
27/01:30am 3.6 2.2 3.6 100 0.0 CALM 0 0 0 0 1020.2 1020.4 0.0
27/01:00am 3.9 2.6 3.9 100 0.0 CALM 0 0 0 0 1020.3 1020.5 0.0
27/12:30am 4.5 3.3 4.5 100 0.0 CALM 0 0 0 0 1020.2 1020.4 0.0
27/12:00am 5.0 3.9 5.0 100 0.0 CALM 0 0 0 0 1020.2 1020.4 0.0
 
Date/Time
WST
Temp
°C
App
Temp
°C
Dew
Point
Rel
Hum
%
Delta-T
°C
Wind Press
QNH
hPa
Press
MSL
hPa
Rain
since 9 am
mm
Dir
 
Spd
km/h
Gust
km/h
Spd
kts
Gust
kts
26/11:30pm 5.5 4.5 5.5 100 0.0 CALM 0 0 0 0 1020.4 1020.6 0.0
26/11:00pm 6.0 5.1 6.0 100 0.0 CALM 0 0 0 0 1020.5 1020.7 0.0
26/10:30pm 6.3 5.4 6.2 99 0.0 CALM 0 0 0 0 1020.9 1021.0 0.0
26/10:00pm 6.6 5.8 6.5 99 0.0 CALM 0 0 0 0 1021.0 1021.1 0.0
26/09:30pm 7.0 6.3 6.9 99 0.0 CALM 0 0 0 0 1021.1 1021.2 0.0
26/09:00pm 6.9 6.2 6.8 99 0.0 CALM 0 4 0 2 1021.0 1021.1 0.0
26/08:30pm 7.1 6.4 7.0 99 0.0 CALM 0 0 0 0 1021.2 1021.3 0.0
26/08:00pm 7.5 6.9 7.2 98 0.1 CALM 0 0 0 0 1021.0 1021.1 0.0
26/07:30pm 8.3 7.8 8.0 98 0.1 CALM 0 0 0 0 1020.8 1020.9 0.0
26/07:00pm 9.6 9.2 8.4 92 0.6 CALM 0 0 0 0 1020.4 1020.6 0.0
26/06:30pm 11.1 10.5 7.2 77 1.9 CALM 0 0 0 0 1020.1 1020.3 0.0
26/06:00pm 12.9 12.1 6.5 65 3.1 CALM 0 0 0 0 1020.0 1020.2 0.0
26/05:30pm 15.8 15.0 6.3 53 4.7 CALM 0 0 0 0 1019.9 1020.1 0.0
26/05:00pm 16.6 14.5 5.6 48 5.3 NW 6 11 3 6 1019.7 1019.9 0.0
26/04:30pm 17.5 14.7 5.1 44 6.0 NNW 9 15 5 8 1019.6 1019.8 0.0
26/04:00pm 18.2 15.2 4.0 39 6.7 NNW 9 22 5 12 1019.5 1019.7 0.0

Other Formats:

Comma delimited format used in spreadsheet applications
http://www.bom.gov.au/fwo/IDW60801/IDW60801.95632.axf

JavaScript Object Notation format (JSON) in row-major order
http://www.bom.gov.au/fwo/IDW60801/IDW60801.95632.json